Time;durP1;ratioP1;P1;durP2;ratioP2;P2;SDS_P1;SDS_P2;PMS_P1;PMS_P2;Temp;Humidity;BMP_temperature;BMP_pressure;BME280_temperature;BME280_humidity;BME280_pressure;Samples;Min_cycle;Max_cycle;Signal;HPM_P1;HPM_P2
2022/07/06 00:02:03;;;;;;;1.53;0.90;;;16.60;99.90;;;;;;5034181;28;20160;-69
2022/07/06 00:04:29;;;;;;;1.70;1.00;;;16.60;99.90;;;;;;5016361;28;20587;-70
2022/07/06 00:06:55;;;;;;;1.57;1.10;;;16.50;99.90;;;;;;5034167;28;20549;-71
2022/07/06 00:09:20;;;;;;;2.40;1.13;;;16.60;99.90;;;;;;5034047;28;20265;-70
2022/07/06 00:11:46;;;;;;;1.00;0.80;;;16.50;99.90;;;;;;5034153;28;20172;-68
2022/07/06 00:14:11;;;;;;;1.43;0.80;;;16.50;99.90;;;;;;5033625;28;20188;-69
2022/07/06 00:16:37;;;;;;;1.63;1.10;;;16.50;99.90;;;;;;5033659;28;20173;-69
2022/07/06 00:19:03;;;;;;;3.13;1.03;;;16.50;99.90;;;;;;5033811;28;20169;-69
2022/07/06 00:21:28;;;;;;;1.07;1.00;;;16.50;99.90;;;;;;5034000;28;20207;-69
2022/07/06 00:23:54;;;;;;;1.00;0.80;;;16.50;99.90;;;;;;5037672;22;20239;-70
2022/07/06 00:26:20;;;;;;;1.50;1.00;;;16.40;99.90;;;;;;5016333;28;20182;-70
2022/07/06 00:28:45;;;;;;;1.20;1.10;;;16.40;99.90;;;;;;5015381;28;20166;-70
2022/07/06 00:31:11;;;;;;;1.93;1.27;;;16.40;99.90;;;;;;5013452;28;20430;-70
2022/07/06 00:33:37;;;;;;;1.53;1.03;;;16.30;99.90;;;;;;5013974;28;20222;-70
2022/07/06 00:36:03;;;;;;;2.17;0.97;;;16.30;99.90;;;;;;5013713;28;20204;-70
2022/07/06 00:38:28;;;;;;;1.17;1.07;;;16.30;99.90;;;;;;5014152;28;20171;-70
2022/07/06 00:40:54;;;;;;;2.03;1.00;;;16.30;99.90;;;;;;5013726;28;20400;-70
2022/07/06 00:43:19;;;;;;;1.00;0.90;;;16.40;99.90;;;;;;5013633;28;20271;-70
2022/07/06 00:45:45;;;;;;;0.90;0.90;;;16.30;99.90;;;;;;5013327;28;20180;-70
2022/07/06 00:48:12;;;;;;;1.27;1.10;;;16.20;99.90;;;;;;5013651;28;20188;-70
2022/07/06 00:50:37;;;;;;;2.03;1.20;;;16.20;99.90;;;;;;5013578;28;20652;-70
2022/07/06 00:53:04;;;;;;;0.70;0.70;;;16.30;99.90;;;;;;5013375;28;20438;-69
2022/07/06 00:55:34;;;;;;;1.57;1.00;;;16.20;99.90;;;;;;5013194;28;20217;-70
2022/07/06 00:58:04;;;;;;;1.13;1.03;;;16.20;99.90;;;;;;5013114;28;20418;-70
2022/07/06 01:00:30;;;;;;;1.00;0.93;;;16.10;99.90;;;;;;5012821;28;20495;-70
2022/07/06 01:02:56;;;;;;;1.33;1.10;;;16.10;99.90;;;;;;5013287;28;20444;-70
2022/07/06 01:05:22;;;;;;;1.47;1.00;;;16.10;99.90;;;;;;5013173;28;20423;-68
2022/07/06 01:07:49;;;;;;;1.60;1.20;;;16.00;99.90;;;;;;5013276;28;20801;-70
2022/07/06 01:10:17;;;;;;;1.70;0.87;;;16.00;99.90;;;;;;5011800;28;20415;-69
2022/07/06 01:12:45;;;;;;;1.20;0.90;;;16.10;99.90;;;;;;5011228;28;20517;-69
2022/07/06 01:15:18;;;;;;;2.13;1.07;;;16.10;99.90;;;;;;5013177;28;20462;-69
2022/07/06 01:17:45;;;;;;;1.17;0.90;;;16.10;99.90;;;;;;5013192;28;20403;-68
2022/07/06 01:20:13;;;;;;;1.37;1.07;;;16.10;99.90;;;;;;5013288;28;20497;-68
2022/07/06 01:22:39;;;;;;;2.30;0.90;;;16.10;99.90;;;;;;5012977;28;20395;-69
2022/07/06 01:25:06;;;;;;;0.97;0.87;;;16.10;99.90;;;;;;5013536;28;20436;-70
2022/07/06 01:27:34;;;;;;;1.03;0.90;;;16.10;99.90;;;;;;5013225;28;20415;-69
2022/07/06 01:30:00;;;;;;;2.80;1.10;;;16.10;99.90;;;;;;5012956;28;20411;-70
2022/07/06 01:32:25;;;;;;;2.13;1.00;;;16.10;99.90;;;;;;5012913;28;20465;-69
2022/07/06 01:34:51;;;;;;;1.67;1.20;;;16.10;99.90;;;;;;5011363;28;20547;-70
2022/07/06 01:37:16;;;;;;;1.03;0.97;;;16.20;99.90;;;;;;5012704;28;20681;-69
2022/07/06 01:39:42;;;;;;;1.30;1.10;;;16.20;99.90;;;;;;5012735;28;20183;-69
2022/07/06 01:42:07;;;;;;;0.90;0.90;;;16.20;99.90;;;;;;5012947;28;20173;-69
2022/07/06 01:44:33;;;;;;;1.60;1.00;;;16.20;99.90;;;;;;5012536;28;20663;-69
2022/07/06 01:46:59;;;;;;;1.57;1.17;;;16.20;99.90;;;;;;5012273;28;20176;-69
2022/07/06 01:49:24;;;;;;;1.37;1.00;;;16.10;99.90;;;;;;5013154;28;20168;-68
2022/07/06 01:51:50;;;;;;;1.20;1.10;;;16.10;99.90;;;;;;5012589;28;20183;-69
2022/07/06 01:54:15;;;;;;;1.90;1.10;;;16.10;99.90;;;;;;5012396;28;20702;-69
2022/07/06 01:56:41;;;;;;;1.77;1.10;;;16.20;99.90;;;;;;5012501;28;20183;-70
2022/07/06 01:59:06;;;;;;;2.80;1.33;;;16.30;99.90;;;;;;5012514;28;20219;-70
2022/07/06 02:01:32;;;;;;;2.10;1.40;;;16.30;99.90;;;;;;5012316;28;20211;-70
2022/07/06 02:03:57;;;;;;;3.67;1.13;;;16.30;99.90;;;;;;5012461;28;20290;-70
2022/07/06 02:06:23;;;;;;;1.63;1.10;;;16.30;99.90;;;;;;5012296;28;20176;-70
2022/07/06 02:08:51;;;;;;;1.47;1.00;;;16.30;99.90;;;;;;5012374;28;20173;-70
2022/07/06 02:11:17;;;;;;;2.10;1.30;;;16.30;99.90;;;;;;5012174;28;20644;-70
2022/07/06 02:13:42;;;;;;;1.50;1.17;;;16.50;99.90;;;;;;5012399;28;20498;-69
2022/07/06 02:16:08;;;;;;;3.93;1.33;;;16.50;99.90;;;;;;5010733;28;20667;-70
2022/07/06 02:18:34;;;;;;;5.47;1.80;;;16.50;99.90;;;;;;5012749;28;20177;-70
2022/07/06 02:20:59;;;;;;;6.83;1.50;;;16.60;99.90;;;;;;5012146;28;20195;-69
2022/07/06 02:23:25;;;;;;;2.13;1.33;;;16.50;99.90;;;;;;5011768;28;20209;-69
2022/07/06 02:25:51;;;;;;;1.30;1.20;;;16.30;99.90;;;;;;5012392;28;20184;-70
2022/07/06 02:28:17;;;;;;;1.63;1.10;;;16.20;99.90;;;;;;5012291;28;20460;-71
2022/07/06 02:30:42;;;;;;;2.40;1.67;;;16.00;99.90;;;;;;5012112;28;20963;-70
2022/07/06 02:33:08;;;;;;;2.87;1.50;;;15.80;99.90;;;;;;5011926;28;20199;-70
2022/07/06 02:35:34;;;;;;;1.53;1.27;;;15.70;99.90;;;;;;5011750;28;20193;-69
2022/07/06 02:37:59;;;;;;;2.20;1.50;;;15.60;99.90;;;;;;5012050;28;20231;-70
2022/07/06 02:40:25;;;;;;;1.80;1.30;;;15.40;99.90;;;;;;5011995;28;20199;-68
2022/07/06 02:42:50;;;;;;;1.50;1.40;;;15.40;99.90;;;;;;5011631;28;20223;-69
2022/07/06 02:45:16;;;;;;;1.77;1.67;;;15.20;99.90;;;;;;5011787;28;20164;-69
2022/07/06 02:47:41;;;;;;;2.30;1.90;;;15.20;99.90;;;;;;5012340;28;20180;-69
2022/07/06 02:50:07;;;;;;;1.33;1.23;;;15.10;99.90;;;;;;5012190;28;20255;-70
2022/07/06 02:52:33;;;;;;;1.70;1.50;;;15.10;99.90;;;;;;5011827;28;20180;-69
2022/07/06 02:54:58;;;;;;;3.53;1.50;;;15.10;99.90;;;;;;5011934;28;20455;-69
2022/07/06 02:57:24;;;;;;;3.10;2.10;;;15.10;99.90;;;;;;5011760;28;20180;-69
2022/07/06 02:59:49;;;;;;;2.93;1.40;;;15.10;99.90;;;;;;5011685;28;20175;-69
2022/07/06 03:02:16;;;;;;;1.70;1.47;;;15.20;99.90;;;;;;5011973;28;20178;-69
2022/07/06 03:04:42;;;;;;;3.07;1.43;;;15.10;99.90;;;;;;5011747;28;20188;-69
2022/07/06 03:07:08;;;;;;;2.43;1.30;;;15.10;99.90;;;;;;5011753;28;20415;-69
2022/07/06 03:09:34;;;;;;;1.90;1.80;;;15.00;99.90;;;;;;5012187;28;20494;-69
2022/07/06 03:12:00;;;;;;;1.63;1.10;;;15.20;99.90;;;;;;5014262;28;20580;-69
2022/07/06 03:14:25;;;;;;;4.23;1.90;;;15.10;99.90;;;;;;5019624;28;20607;-69
2022/07/06 03:16:51;;;;;;;1.73;1.63;;;15.10;99.90;;;;;;5012954;28;20208;-68
2022/07/06 03:19:17;;;;;;;2.13;1.70;;;15.10;99.90;;;;;;5011866;28;20219;-69
2022/07/06 03:21:43;;;;;;;1.90;1.80;;;15.10;99.90;;;;;;5011952;28;20256;-70
2022/07/06 03:24:08;;;;;;;1.83;1.63;;;15.10;99.90;;;;;;5014922;28;20442;-69
2022/07/06 03:26:34;;;;;;;2.40;1.63;;;15.10;99.90;;;;;;5014991;28;20168;-69
2022/07/06 03:28:59;;;;;;;2.03;1.60;;;15.20;99.90;;;;;;5015163;28;20218;-70
2022/07/06 03:31:25;;;;;;;1.60;1.50;;;15.10;99.90;;;;;;5014986;28;20168;-70
2022/07/06 03:33:51;;;;;;;1.30;1.20;;;15.30;99.90;;;;;;5014811;28;20188;-69
2022/07/06 03:36:17;;;;;;;2.30;2.20;;;15.10;99.90;;;;;;5014363;28;20283;-69
2022/07/06 03:38:43;;;;;;;1.87;1.47;;;15.10;99.90;;;;;;5015081;28;20407;-69
2022/07/06 03:41:08;;;;;;;1.50;1.33;;;15.10;99.90;;;;;;5014785;28;20410;-69
2022/07/06 03:43:34;;;;;;;2.20;2.00;;;15.20;99.90;;;;;;5014758;28;20526;-70
2022/07/06 03:45:59;;;;;;;6.93;1.60;;;15.10;99.90;;;;;;5014653;28;20682;-69
2022/07/06 03:48:25;;;;;;;2.00;1.80;;;15.10;99.90;;;;;;5014691;28;20173;-69
2022/07/06 03:50:51;;;;;;;2.17;1.83;;;15.10;99.90;;;;;;5014687;28;20203;-69
2022/07/06 03:53:16;;;;;;;1.70;1.43;;;15.10;99.90;;;;;;5014539;28;20203;-70
2022/07/06 03:55:42;;;;;;;1.50;1.40;;;15.20;99.90;;;;;;5014251;28;20228;-67
2022/07/06 03:58:07;;;;;;;5.93;1.97;;;15.30;99.90;;;;;;5014881;28;20172;-70
2022/07/06 04:00:34;;;;;;;1.53;1.43;;;15.40;99.90;;;;;;5014486;28;20187;-70
2022/07/06 04:03:00;;;;;;;1.77;1.67;;;15.40;99.90;;;;;;5014300;28;20223;-70
2022/07/06 04:05:26;;;;;;;1.70;1.60;;;15.40;99.90;;;;;;5014122;28;20463;-69
2022/07/06 04:07:52;;;;;;;1.40;1.30;;;15.40;99.90;;;;;;5014716;28;20913;-69
2022/07/06 04:10:17;;;;;;;1.50;1.40;;;15.40;99.90;;;;;;5014651;28;20595;-70
2022/07/06 04:12:44;;;;;;;2.30;1.00;;;15.50;99.90;;;;;;5014490;28;20563;-69
2022/07/06 04:15:11;;;;;;;2.33;1.20;;;15.60;99.90;;;;;;5014002;28;20196;-70
2022/07/06 04:17:53;;;;;;;35.17;19.43;;;15.70;99.90;;;;;;5014655;28;20407;-68
2022/07/06 04:20:20;;;;;;;17.40;11.83;;;15.70;99.90;;;;;;5014512;28;20502;-68
2022/07/06 04:22:46;;;;;;;2.00;1.87;;;15.90;99.90;;;;;;5014235;28;20448;-68
2022/07/06 04:25:11;;;;;;;3.33;2.17;;;16.50;99.90;;;;;;5013910;28;20439;-67
2022/07/06 04:27:37;;;;;;;1.10;1.00;;;17.10;99.90;;;;;;5014315;28;20201;-68
2022/07/06 04:30:04;;;;;;;1.47;1.37;;;17.20;99.90;;;;;;5013983;28;20535;-68
2022/07/06 04:32:29;;;;;;;1.60;1.47;;;17.00;99.90;;;;;;5013642;28;20236;-68
2022/07/06 04:34:55;;;;;;;3.17;2.33;;;16.40;99.90;;;;;;5013743;28;20459;-68
2022/07/06 04:37:21;;;;;;;1.10;1.00;;;16.30;99.90;;;;;;5013962;28;20696;-68
2022/07/06 04:39:46;;;;;;;3.50;1.13;;;16.10;99.90;;;;;;5012521;28;20588;-68
2022/07/06 04:42:12;;;;;;;2.10;1.07;;;16.50;99.90;;;;;;5013808;28;20166;-68
2022/07/06 04:44:37;;;;;;;3.00;1.00;;;17.00;99.90;;;;;;5013530;28;20326;-67
2022/07/06 04:47:03;;;;;;;3.60;1.20;;;17.00;99.90;;;;;;5013708;28;20629;-68
2022/07/06 04:49:28;;;;;;;9.60;7.70;;;17.40;99.90;;;;;;5013699;28;20195;-69
2022/07/06 04:51:54;;;;;;;1.67;1.20;;;17.80;99.90;;;;;;5013833;28;20665;-70
2022/07/06 04:54:19;;;;;;;3.93;1.20;;;17.40;99.90;;;;;;5013610;28;20280;-69
2022/07/06 04:56:46;;;;;;;1.20;1.10;;;17.30;99.90;;;;;;5013697;28;20181;-69
2022/07/06 04:59:12;;;;;;;2.20;1.30;;;17.50;99.90;;;;;;5014271;28;20539;-69
2022/07/06 05:01:38;;;;;;;2.50;1.13;;;17.50;99.90;;;;;;5015577;28;20412;-68
2022/07/06 05:04:03;;;;;;;3.13;1.20;;;17.70;99.90;;;;;;5015793;28;20193;-69
2022/07/06 05:06:29;;;;;;;3.77;1.50;;;17.80;99.90;;;;;;5015788;28;20181;-69
2022/07/06 05:08:55;;;;;;;2.50;0.90;;;18.00;99.90;;;;;;5017961;28;20278;-69
2022/07/06 05:11:20;;;;;;;2.30;1.47;;;18.30;99.90;;;;;;5016837;28;20206;-69
2022/07/06 05:13:46;;;;;;;1.23;1.13;;;18.70;99.90;;;;;;5015752;28;20193;-68
2022/07/06 05:16:12;;;;;;;1.37;1.00;;;18.90;99.90;;;;;;5015638;28;20206;-71
2022/07/06 05:18:37;;;;;;;3.40;1.03;;;18.40;99.90;;;;;;5015952;28;20174;-69
2022/07/06 05:21:03;;;;;;;1.23;0.90;;;18.80;99.90;;;;;;5016867;28;20175;-70
2022/07/06 05:23:28;;;;;;;1.07;0.80;;;20.10;99.90;;;;;;5017147;28;20215;-69
2022/07/06 05:25:54;;;;;;;1.37;0.80;;;19.70;99.90;;;;;;5022046;28;20176;-70
2022/07/06 05:28:19;;;;;;;2.20;1.00;;;20.10;99.90;;;;;;5022269;28;20172;-69
2022/07/06 05:30:45;;;;;;;1.10;1.00;;;20.30;99.90;;;;;;5021598;28;20181;-69
2022/07/06 05:33:11;;;;;;;1.93;1.00;;;19.40;99.90;;;;;;5020464;28;20631;-70
2022/07/06 05:35:36;;;;;;;0.80;0.80;;;19.40;99.90;;;;;;5020958;28;20282;-69
2022/07/06 05:38:02;;;;;;;4.73;1.00;;;19.60;99.90;;;;;;5022149;28;20206;-69
2022/07/06 05:40:27;;;;;;;1.17;1.07;;;19.30;99.90;;;;;;5022653;28;20179;-69
2022/07/06 05:42:53;;;;;;;6.00;1.10;;;20.00;99.90;;;;;;5021626;28;20216;-69
2022/07/06 05:45:19;;;;;;;4.00;1.10;;;20.70;99.90;;;;;;5016471;28;20206;-70
2022/07/06 05:50:29;;;;;;;1.90;0.90;;;20.60;99.90;;;;;;5013819;28;20721;-68
2022/07/06 05:52:59;;;;;;;1.10;0.80;;;21.20;99.90;;;;;;5014170;28;20463;-69
2022/07/06 05:55:26;;;;;;;0.93;0.60;;;21.80;99.90;;;;;;5014171;28;20202;-68
2022/07/06 05:57:53;;;;;;;1.67;0.90;;;22.30;99.90;;;;;;5014137;28;20399;-68
2022/07/06 06:00:20;;;;;;;2.20;1.00;;;22.90;99.90;;;;;;5013752;28;20422;-69
2022/07/06 06:02:45;;;;;;;2.53;0.80;;;21.40;99.90;;;;;;5013153;28;20941;-69
2022/07/06 06:05:13;;;;;;;4.00;1.10;;;21.30;99.90;;;;;;5013208;28;20414;-69
2022/07/06 06:07:39;;;;;;;1.10;0.90;;;21.10;99.90;;;;;;5013535;28;20267;-69
2022/07/06 06:10:07;;;;;;;2.13;1.07;;;20.60;99.90;;;;;;5012629;28;20451;-69
2022/07/06 06:12:33;;;;;;;2.00;0.90;;;20.90;99.90;;;;;;5012281;28;20179;-69
2022/07/06 06:14:59;;;;;;;2.10;1.00;;;20.30;99.90;;;;;;5012127;28;20890;-69
2022/07/06 06:17:24;;;;;;;0.97;0.90;;;21.00;99.90;;;;;;5013256;28;20259;-69
2022/07/06 06:19:50;;;;;;;1.67;0.90;;;21.60;99.90;;;;;;5012857;28;20413;-69
2022/07/06 06:22:15;;;;;;;2.47;0.97;;;21.90;99.90;;;;;;5013080;28;20182;-69
2022/07/06 06:24:41;;;;;;;2.17;1.27;;;21.80;99.90;;;;;;5033597;23;20236;-65
2022/07/06 06:27:06;;;;;;;2.80;0.97;;;21.90;99.90;;;;;;5010956;28;20479;-65
2022/07/06 06:29:32;;;;;;;2.50;0.80;;;22.90;99.90;;;;;;5010937;28;20169;-65
2022/07/06 06:31:58;;;;;;;1.13;0.93;;;21.20;99.90;;;;;;5011019;28;20634;-65
2022/07/06 06:34:23;;;;;;;3.80;0.90;;;21.50;99.90;;;;;;5011067;28;20192;-65
2022/07/06 06:36:49;;;;;;;2.07;1.00;;;21.90;99.90;;;;;;5011105;28;20168;-65
2022/07/06 06:39:15;;;;;;;1.07;0.70;;;22.90;99.90;;;;;;5011385;28;20164;-65
2022/07/06 06:41:40;;;;;;;1.87;1.10;;;22.70;99.90;;;;;;5010700;28;20242;-65
2022/07/06 06:44:06;;;;;;;1.77;1.10;;;23.40;99.90;;;;;;5010959;28;20195;-64
2022/07/06 06:46:31;;;;;;;4.93;1.07;;;24.20;99.90;;;;;;5010485;28;20172;-65
2022/07/06 06:48:57;;;;;;;1.80;0.80;;;24.40;99.00;;;;;;5011117;28;20207;-65
2022/07/06 06:51:22;;;;;;;1.00;0.90;;;23.80;99.50;;;;;;5010987;28;20184;-66
2022/07/06 06:53:48;;;;;;;1.17;0.90;;;24.40;99.40;;;;;;5010864;28;20218;-65
2022/07/06 06:56:14;;;;;;;2.87;0.87;;;24.50;97.60;;;;;;5010392;28;20199;-65
2022/07/06 06:58:39;;;;;;;4.23;1.00;;;24.50;98.30;;;;;;5014325;28;20207;-64
2022/07/06 07:01:05;;;;;;;2.50;0.97;;;22.70;99.30;;;;;;5014449;28;20242;-64
2022/07/06 07:03:31;;;;;;;0.80;0.60;;;22.40;99.70;;;;;;5014339;28;20611;-64
2022/07/06 07:05:57;;;;;;;1.77;1.00;;;23.10;99.90;;;;;;5014228;28;20191;-64
2022/07/06 07:08:22;;;;;;;1.27;0.90;;;24.80;97.90;;;;;;5014484;28;20411;-64
2022/07/06 07:10:48;;;;;;;2.97;0.80;;;25.40;95.50;;;;;;5012894;28;20168;-65
2022/07/06 07:13:13;;;;;;;0.90;0.70;;;24.40;95.30;;;;;;5014356;28;20176;-64
2022/07/06 07:15:39;;;;;;;2.00;1.00;;;24.70;94.30;;;;;;5014035;28;20191;-66
2022/07/06 07:18:05;;;;;;;0.70;0.60;;;23.20;96.00;;;;;;5014428;28;20168;-66
2022/07/06 07:20:31;;;;;;;3.63;0.80;;;23.90;96.70;;;;;;5014767;28;20160;-65
2022/07/06 07:22:57;;;;;;;2.30;0.90;;;23.30;96.10;;;;;;5014297;28;20230;-69
2022/07/06 07:25:23;;;;;;;1.40;0.80;;;23.20;97.20;;;;;;5013535;28;20451;-65
2022/07/06 07:27:48;;;;;;;1.03;0.80;;;24.20;94.60;;;;;;5013966;28;20923;-65
2022/07/06 07:30:14;;;;;;;2.97;0.80;;;23.50;95.30;;;;;;5014226;28;20532;-65
2022/07/06 07:32:42;;;;;;;1.80;1.00;;;22.30;96.20;;;;;;5014042;28;20225;-65
2022/07/06 07:35:08;;;;;;;1.97;0.90;;;23.50;95.00;;;;;;5013540;28;20208;-65
2022/07/06 07:37:34;;;;;;;3.13;0.90;;;23.90;94.80;;;;;;5013897;28;20493;-65
2022/07/06 07:39:59;;;;;;;4.40;0.80;;;22.10;94.90;;;;;;5012369;28;21020;-65
2022/07/06 07:42:25;;;;;;;2.13;0.87;;;22.20;94.60;;;;;;5013926;28;20238;-65
2022/07/06 07:44:51;;;;;;;0.73;0.73;;;22.30;94.60;;;;;;5013375;28;20658;-65
2022/07/06 07:47:16;;;;;;;0.90;0.80;;;24.00;92.60;;;;;;5013924;28;20356;-65
2022/07/06 07:49:42;;;;;;;1.43;0.80;;;24.20;91.00;;;;;;5013856;28;20169;-65
2022/07/06 07:52:08;;;;;;;0.80;0.80;;;24.30;89.10;;;;;;5012210;28;20274;-65
2022/07/06 07:54:34;;;;;;;1.90;0.70;;;24.20;91.20;;;;;;5013076;28;20274;-65
2022/07/06 07:57:00;;;;;;;0.90;0.80;;;25.80;89.20;;;;;;5013663;28;20482;-65
2022/07/06 07:59:25;;;;;;;0.80;0.70;;;24.90;88.30;;;;;;5013683;28;20635;-64
2022/07/06 08:01:51;;;;;;;2.13;1.00;;;23.00;91.00;;;;;;5013909;28;20266;-65
2022/07/06 08:04:17;;;;;;;1.50;0.77;;;23.50;91.60;;;;;;5012089;28;20196;-65
2022/07/06 08:06:43;;;;;;;1.10;0.80;;;23.30;91.90;;;;;;5012316;28;20199;-65
2022/07/06 08:09:09;;;;;;;1.10;1.00;;;22.40;92.80;;;;;;5013254;28;20414;-65
2022/07/06 08:11:35;;;;;;;2.40;0.90;;;22.60;91.80;;;;;;5012108;28;20171;-65
2022/07/06 08:14:01;;;;;;;0.80;0.70;;;21.50;93.10;;;;;;5013364;28;20188;-65
2022/07/06 08:16:27;;;;;;;1.20;0.70;;;22.10;92.20;;;;;;5013111;28;20476;-65
2022/07/06 08:18:53;;;;;;;2.10;0.90;;;22.30;93.00;;;;;;5011968;28;20402;-65
2022/07/06 08:21:18;;;;;;;3.90;0.80;;;22.80;91.90;;;;;;5013396;28;20170;-65
2022/07/06 08:23:44;;;;;;;4.23;0.97;;;22.80;91.70;;;;;;5012852;28;20618;-65
2022/07/06 08:26:10;;;;;;;1.47;0.80;;;22.50;92.40;;;;;;5012968;28;20237;-65
2022/07/06 08:28:35;;;;;;;1.50;1.20;;;21.50;94.30;;;;;;5013030;28;20196;-65
2022/07/06 08:31:01;;;;;;;4.40;1.20;;;21.20;95.50;;;;;;5012725;28;20585;-65
2022/07/06 08:33:26;;;;;;;4.23;1.00;;;21.10;95.20;;;;;;5012699;28;20202;-64
2022/07/06 08:35:52;;;;;;;1.27;1.00;;;20.80;96.40;;;;;;5012595;28;20198;-65
2022/07/06 08:38:18;;;;;;;1.77;0.80;;;21.90;96.60;;;;;;5013030;28;20178;-65
2022/07/06 08:40:47;;;;;;;2.03;1.03;;;23.10;95.20;;;;;;5012634;28;20168;-65
2022/07/06 08:43:14;;;;;;;0.80;0.70;;;21.70;93.90;;;;;;5012551;28;20698;-65
2022/07/06 08:45:43;;;;;;;0.80;0.70;;;21.70;93.90;;;;;;5012797;28;20741;-65
2022/07/06 08:48:10;;;;;;;1.00;0.90;;;21.80;94.00;;;;;;5012692;28;20792;-65
2022/07/06 08:50:36;;;;;;;1.10;1.00;;;21.30;92.90;;;;;;5012559;28;20406;-65
2022/07/06 08:53:02;;;;;;;0.80;0.67;;;21.00;93.10;;;;;;5012374;28;20417;-65
2022/07/06 08:55:28;;;;;;;0.90;0.77;;;21.20;92.40;;;;;;5012385;28;20456;-65
2022/07/06 08:57:57;;;;;;;2.20;1.13;;;21.20;92.10;;;;;;5012562;28;20893;-65
2022/07/06 09:00:24;;;;;;;1.10;0.80;;;21.00;92.10;;;;;;5012395;28;20535;-65
2022/07/06 09:02:53;;;;;;;1.30;0.80;;;21.00;91.40;;;;;;5012295;28;20411;-65
2022/07/06 09:05:21;;;;;;;1.87;0.83;;;21.10;89.10;;;;;;5012373;28;20439;-65
2022/07/06 09:07:49;;;;;;;1.20;0.90;;;21.10;90.00;;;;;;5012417;28;20406;-65
2022/07/06 09:10:18;;;;;;;2.13;0.80;;;21.90;90.80;;;;;;5012026;28;20401;-65
2022/07/06 09:12:43;;;;;;;0.60;0.60;;;21.90;89.60;;;;;;5012398;28;20433;-66
2022/07/06 09:15:09;;;;;;;0.80;0.70;;;21.30;89.30;;;;;;5011867;28;20455;-65
2022/07/06 09:17:41;;;;;;;1.90;0.87;;;21.80;86.20;;;;;;5012256;28;20574;-65
2022/07/06 09:20:08;;;;;;;0.60;0.60;;;21.80;87.10;;;;;;5011721;28;20425;-65
2022/07/06 09:22:34;;;;;;;0.90;0.70;;;21.50;86.70;;;;;;5012446;28;20411;-65
2022/07/06 09:25:16;;;;;;;1.53;0.87;;;21.80;85.20;;;;;;5011909;28;20446;-65
2022/07/06 09:27:47;;;;;;;1.07;0.70;;;22.30;84.50;;;;;;5010707;28;20427;-64
2022/07/06 09:30:14;;;;;;;3.13;0.80;;;21.60;85.20;;;;;;5012282;28;20399;-65
2022/07/06 09:32:41;;;;;;;0.70;0.70;;;21.00;85.50;;;;;;5011984;28;20495;-64
2022/07/06 09:35:08;;;;;;;1.00;0.70;;;21.10;85.70;;;;;;5012025;28;20453;-65
2022/07/06 09:37:34;;;;;;;2.00;0.70;;;21.40;85.50;;;;;;5012140;28;20427;-65
2022/07/06 09:39:59;;;;;;;0.90;0.90;;;20.70;85.70;;;;;;5011805;28;20663;-65
2022/07/06 09:42:26;;;;;;;1.73;0.60;;;20.40;84.10;;;;;;5011654;28;20513;-65
2022/07/06 09:44:52;;;;;;;1.23;0.90;;;20.00;84.00;;;;;;5011612;28;20207;-65
2022/07/06 09:47:19;;;;;;;0.70;0.60;;;20.30;84.40;;;;;;5011502;28;20416;-64
2022/07/06 09:49:46;;;;;;;4.30;1.10;;;20.30;85.80;;;;;;5011588;28;20890;-64
2022/07/06 09:52:12;;;;;;;1.80;0.87;;;20.10;87.40;;;;;;5011533;28;20408;-65
2022/07/06 09:54:40;;;;;;;0.90;0.80;;;20.20;87.80;;;;;;5011078;28;20474;-65
2022/07/06 09:57:06;;;;;;;2.00;0.80;;;20.50;88.60;;;;;;5011442;28;20486;-65
2022/07/06 09:59:35;;;;;;;4.37;0.90;;;21.30;89.00;;;;;;5011318;28;20559;-65
2022/07/06 10:02:05;;;;;;;1.90;0.90;;;21.00;88.30;;;;;;5011595;28;20403;-65
2022/07/06 10:04:31;;;;;;;2.10;0.83;;;20.70;90.60;;;;;;5011195;28;20458;-65
2022/07/06 10:06:58;;;;;;;2.10;0.90;;;20.10;90.90;;;;;;5011289;28;20415;-65
2022/07/06 10:09:26;;;;;;;1.73;0.70;;;19.90;90.40;;;;;;5011299;28;20416;-65
2022/07/06 10:11:57;;;;;;;0.60;0.57;;;20.10;90.10;;;;;;5011378;28;20766;-65
2022/07/06 10:14:28;;;;;;;0.90;0.80;;;19.90;90.90;;;;;;5010943;28;20421;-65
2022/07/06 10:16:57;;;;;;;1.97;0.90;;;20.40;90.90;;;;;;5011472;28;20409;-65
2022/07/06 10:19:22;;;;;;;0.70;0.70;;;20.50;90.70;;;;;;5011099;28;20585;-65
2022/07/06 10:21:48;;;;;;;1.07;0.90;;;20.50;90.40;;;;;;5010943;28;20497;-65
2022/07/06 10:24:14;;;;;;;2.80;0.90;;;20.30;91.20;;;;;;5010958;28;20573;-65
2022/07/06 10:26:41;;;;;;;2.30;0.87;;;20.20;91.30;;;;;;5011179;28;20877;-65
2022/07/06 10:29:07;;;;;;;0.90;0.80;;;20.80;91.80;;;;;;5011161;28;20528;-65
2022/07/06 10:31:38;;;;;;;1.47;0.80;;;20.40;92.30;;;;;;5012938;28;20414;-64
2022/07/06 10:34:06;;;;;;;1.83;0.97;;;20.80;92.00;;;;;;5015192;28;20791;-64
2022/07/06 10:36:38;;;;;;;1.57;0.87;;;20.20;92.50;;;;;;5014730;28;20520;-65
2022/07/06 10:41:02;;;;;;;0.80;0.73;;;20.30;92.10;;;;;;5014949;28;20454;-64
2022/07/06 10:41:49;;;;;;;1.30;0.80;;;20.60;91.20;;;;;;5014642;28;20500;-65
2022/07/06 10:44:22;;;;;;;0.70;0.70;;;20.70;90.90;;;;;;5014902;28;20416;-65
2022/07/06 10:46:55;;;;;;;3.00;0.70;;;20.60;90.30;;;;;;5015540;28;20161;-65
2022/07/06 10:49:22;;;;;;;0.87;0.80;;;21.00;90.40;;;;;;5015189;28;20400;-65
2022/07/06 10:51:49;;;;;;;0.90;0.70;;;21.60;89.20;;;;;;5014946;28;20934;-65
2022/07/06 10:54:15;;;;;;;0.60;0.60;;;21.00;87.00;;;;;;5014882;28;20432;-65
2022/07/06 10:56:46;;;;;;;0.60;0.57;;;21.40;87.50;;;;;;5014388;28;20495;-64
2022/07/06 10:59:22;;;;;;;1.23;0.90;;;21.40;89.80;;;;;;5014615;28;20410;-65
2022/07/06 11:02:13;;;;;;;1.63;0.90;;;21.60;88.80;;;;;;5014535;28;20450;-65
2022/07/06 11:04:40;;;;;;;0.70;0.70;;;21.90;88.60;;;;;;5014587;28;20498;-65
2022/07/06 11:07:15;;;;;;;0.80;0.70;;;21.90;88.00;;;;;;5014744;28;20408;-66
2022/07/06 11:09:47;;;;;;;0.80;0.70;;;22.00;87.60;;;;;;5014606;28;20434;-65
2022/07/06 11:12:18;;;;;;;0.60;0.57;;;21.80;84.80;;;;;;5014421;28;20499;-65
2022/07/06 11:14:46;;;;;;;1.33;0.90;;;21.70;85.10;;;;;;5013880;28;20460;-65
2022/07/06 11:17:12;;;;;;;2.20;1.20;;;22.40;85.60;;;;;;5014246;28;20413;-64
2022/07/06 11:19:37;;;;;;;1.50;0.70;;;21.60;86.20;;;;;;5014350;28;20791;-66
2022/07/06 11:22:09;;;;;;;2.27;0.87;;;21.30;87.30;;;;;;5014343;28;20280;-65
2022/07/06 11:24:37;;;;;;;1.90;0.80;;;20.80;89.40;;;;;;5013951;28;20206;-66
2022/07/06 11:27:03;;;;;;;0.60;0.60;;;21.30;90.10;;;;;;5014041;28;20497;-65
2022/07/06 11:29:29;;;;;;;0.87;0.83;;;21.10;90.20;;;;;;5014113;28;20411;-66
2022/07/06 11:32:00;;;;;;;0.80;0.80;;;20.90;91.20;;;;;;5014019;28;20501;-65
2022/07/06 11:34:30;;;;;;;1.07;0.70;;;20.00;91.70;;;;;;5013791;28;20423;-65
2022/07/06 11:37:03;;;;;;;0.97;0.73;;;20.60;91.30;;;;;;5013928;28;20412;-65
2022/07/06 11:39:31;;;;;;;0.70;0.70;;;20.70;90.80;;;;;;5013855;28;20400;-65
2022/07/06 11:41:57;;;;;;;1.33;0.60;;;20.60;90.10;;;;;;5014153;28;20466;-65
2022/07/06 11:44:23;;;;;;;0.93;0.80;;;20.80;90.70;;;;;;5013205;28;20430;-65
2022/07/06 11:46:49;;;;;;;0.77;0.77;;;20.80;91.40;;;;;;5014355;28;20422;-65
2022/07/06 11:49:15;;;;;;;0.80;0.60;;;21.10;90.50;;;;;;5014079;28;20175;-65
2022/07/06 11:51:42;;;;;;;1.23;0.80;;;21.00;89.40;;;;;;5013887;28;20433;-65
2022/07/06 11:54:11;;;;;;;0.70;0.70;;;21.20;88.40;;;;;;5013750;28;20464;-65
2022/07/06 11:56:37;;;;;;;0.80;0.70;;;21.40;87.40;;;;;;5013745;28;20488;-66
2022/07/06 11:59:03;;;;;;;0.90;0.80;;;21.30;85.80;;;;;;5013698;28;20441;-66
2022/07/06 12:01:31;;;;;;;0.60;0.60;;;21.10;87.90;;;;;;5013524;28;20908;-66
2022/07/06 12:04:04;;;;;;;0.77;0.60;;;21.60;87.20;;;;;;5013595;28;20432;-66
2022/07/06 12:06:30;;;;;;;0.70;0.70;;;21.20;86.20;;;;;;5013648;28;20395;-66
2022/07/06 12:09:03;;;;;;;0.93;0.80;;;21.10;88.90;;;;;;5012137;28;20894;-66
2022/07/06 12:11:32;;;;;;;0.73;0.60;;;21.40;88.80;;;;;;5012311;28;20512;-64
2022/07/06 12:14:00;;;;;;;1.00;0.80;;;21.60;88.00;;;;;;5013360;28;20427;-65
2022/07/06 12:16:36;;;;;;;0.57;0.50;;;21.80;87.90;;;;;;5013490;28;20539;-65
2022/07/06 12:19:06;;;;;;;0.70;0.70;;;21.80;87.70;;;;;;5012956;28;20398;-64
2022/07/06 12:21:32;;;;;;;0.80;0.60;;;22.00;88.90;;;;;;5013053;28;20763;-64
2022/07/06 12:23:58;;;;;;;1.47;0.60;;;21.30;88.70;;;;;;5039336;23;20796;-69
2022/07/06 12:26:29;;;;;;;1.10;0.63;;;21.20;89.20;;;;;;5032932;28;20571;-69
2022/07/06 12:29:10;;;;;;;1.00;0.60;;;21.40;88.70;;;;;;5033430;28;20400;-69
2022/07/06 12:31:36;;;;;;;1.70;0.80;;;21.20;88.30;;;;;;5032964;28;20388;-69
2022/07/06 12:34:04;;;;;;;0.60;0.60;;;21.50;88.00;;;;;;5033145;28;20425;-70
2022/07/06 12:36:30;;;;;;;0.97;0.70;;;21.40;88.40;;;;;;5033504;28;20461;-69
2022/07/06 12:38:56;;;;;;;0.63;0.60;;;21.90;88.80;;;;;;5036551;28;20474;-69
2022/07/06 12:41:26;;;;;;;0.97;0.70;;;22.50;86.40;;;;;;5035956;28;20444;-69
2022/07/06 12:44:01;;;;;;;1.43;0.70;;;22.00;87.40;;;;;;5033496;28;20462;-69
2022/07/06 12:46:31;;;;;;;0.53;0.53;;;21.20;89.80;;;;;;5033246;28;20412;-69